Red Mountain, California
Current Conditions -  °F | °C
As of 5:56 AM on Saturday 22 Nov 2014 (Local Time) from KNID Reporting Station
Clear Clear  
Wind Chill: 39°   Ceiling: Unl
Heat Index: 39°   Visibility: 10mi
Dew Point: 29°   Wind: 3mph
Humidity: 67%   Direction: 140°SE
Pressure: 30.07"   Gusts: NA
Location:  35.36°N, 117.62°W
Report Text: KNID 221356Z AUTO 14003KT 10SM CLR 04/M02 A3007 RMK AO2 SLP186 T00391017 $
Loading
Personal Weather Stations






























Interactive Weather Map New forecast layout! Learn more

10-Day Weather Forecast

Advertisements
Track Severe Weather on mobile